Time;durP1;ratioP1;P1;durP2;ratioP2;P2;SDS_P1;SDS_P2;PMS_P1;PMS_P2;Temp;Humidity;BMP_temperature;BMP_pressure;BME280_temperature;BME280_humidity;BME280_pressure;Samples;Min_cycle;Max_cycle;Signal;HPM_P1;HPM_P2
2024/01/02 00:01:29;;;;;;;7.95;3.42;;;7.80;57.30;;;;;;5015871;28;20085;-60
2024/01/02 00:03:57;;;;;;;10.77;3.33;;;7.70;57.30;;;;;;5010495;28;20120;-58
2024/01/02 00:06:26;;;;;;;8.00;2.85;;;7.60;57.20;;;;;;5009658;28;20472;-60
2024/01/02 00:08:54;;;;;;;6.90;3.17;;;7.60;57.90;;;;;;5012733;28;20132;-59
2024/01/02 00:11:23;;;;;;;8.68;3.25;;;7.50;57.30;;;;;;5012142;28;20510;-61
2024/01/02 00:13:51;;;;;;;6.10;3.20;;;7.50;57.30;;;;;;5022691;28;20068;-60
2024/01/02 00:16:21;;;;;;;7.25;3.75;;;7.40;57.90;;;;;;5005984;28;20057;-62
2024/01/02 00:18:49;;;;;;;5.60;3.28;;;7.40;57.40;;;;;;5029864;28;20060;-60
2024/01/02 00:21:18;;;;;;;9.77;3.55;;;7.40;57.40;;;;;;5009751;28;20052;-59
2024/01/02 00:23:46;;;;;;;7.70;3.63;;;7.40;57.40;;;;;;5017657;28;20116;-60
2024/01/02 00:26:14;;;;;;;5.10;2.47;;;7.40;57.40;;;;;;5012414;28;20064;-61
2024/01/02 00:28:43;;;;;;;11.93;4.20;;;7.40;57.40;;;;;;5015735;28;20057;-60
2024/01/02 00:31:11;;;;;;;5.32;3.03;;;7.40;57.50;;;;;;5008386;28;20050;-60
2024/01/02 00:33:41;;;;;;;9.43;3.97;;;7.40;57.40;;;;;;5021714;28;20518;-60
2024/01/02 00:36:11;;;;;;;9.30;3.58;;;7.40;57.40;;;;;;5005160;28;20073;-61
2024/01/02 00:38:39;;;;;;;7.18;2.95;;;7.40;57.50;;;;;;5011383;28;20049;-60
2024/01/02 00:41:08;;;;;;;5.57;3.00;;;7.40;57.40;;;;;;5009944;28;20069;-60
2024/01/02 00:43:37;;;;;;;6.20;2.95;;;7.40;58.10;;;;;;5013191;28;20065;-60
2024/01/02 00:46:05;;;;;;;12.68;3.30;;;7.40;58.00;;;;;;5022382;28;20053;-60
2024/01/02 00:48:33;;;;;;;6.65;2.20;;;7.40;57.40;;;;;;5023294;28;20048;-60
2024/01/02 00:51:03;;;;;;;7.18;2.67;;;7.40;57.50;;;;;;5006607;28;20160;-61
2024/01/02 00:53:31;;;;;;;5.40;2.83;;;7.40;57.60;;;;;;5023362;28;20049;-60
2024/01/02 00:56:00;;;;;;;4.25;2.08;;;7.40;57.60;;;;;;5002119;28;20062;-61
2024/01/02 00:58:29;;;;;;;5.68;2.55;;;7.50;58.20;;;;;;5009592;28;20049;-62
2024/01/02 01:00:57;;;;;;;7.43;1.85;;;7.50;57.60;;;;;;5016185;28;20061;-60
2024/01/02 01:03:25;;;;;;;3.75;2.20;;;7.50;57.50;;;;;;5010722;28;20057;-60
2024/01/02 01:05:54;;;;;;;6.47;2.72;;;7.50;57.50;;;;;;5019098;28;20074;-59
2024/01/02 01:08:25;;;;;;;7.88;2.40;;;7.50;57.40;;;;;;5016133;28;20162;-60
2024/01/02 01:10:53;;;;;;;2.60;2.08;;;7.60;57.50;;;;;;5017830;28;20054;-59
2024/01/02 01:13:21;;;;;;;4.68;2.25;;;7.60;57.50;;;;;;5008235;28;20053;-60
2024/01/02 01:15:50;;;;;;;2.90;2.05;;;7.60;57.50;;;;;;5023091;28;20076;-61
2024/01/02 01:18:18;;;;;;;3.95;1.90;;;7.60;57.60;;;;;;5001504;28;20058;-61
2024/01/02 01:20:47;;;;;;;4.78;1.98;;;7.60;57.50;;;;;;5008630;28;20045;-60
2024/01/02 01:23:15;;;;;;;2.25;1.92;;;7.60;57.50;;;;;;5010228;28;20059;-60
2024/01/02 01:25:45;;;;;;;2.03;1.70;;;7.60;57.50;;;;;;5017605;28;20050;-60
2024/01/02 01:28:13;;;;;;;8.00;2.50;;;7.70;57.60;;;;;;4991565;28;20677;-61
2024/01/02 01:30:41;;;;;;;2.03;1.92;;;7.70;57.70;;;;;;5015408;28;20065;-62
2024/01/02 01:33:10;;;;;;;4.05;1.50;;;7.70;57.60;;;;;;5009423;28;20058;-61
2024/01/02 01:35:38;;;;;;;3.78;1.95;;;7.70;57.60;;;;;;5021454;28;20125;-61
2024/01/02 01:38:07;;;;;;;1.38;1.23;;;7.70;58.10;;;;;;5007399;28;20069;-59
2024/01/02 01:40:35;;;;;;;5.22;2.22;;;7.70;57.50;;;;;;5017398;28;20041;-60
2024/01/02 01:43:12;;;;;;;6.45;2.30;;;7.70;57.40;;;;;;5011686;28;20111;-60
2024/01/02 01:45:40;;;;;;;4.47;2.42;;;7.70;57.40;;;;;;5017512;28;20507;-60
2024/01/02 01:48:09;;;;;;;5.32;1.60;;;7.70;57.40;;;;;;5000596;28;20140;-60
2024/01/02 01:50:38;;;;;;;2.97;2.03;;;7.70;57.40;;;;;;5014817;28;20061;-60
2024/01/02 01:53:08;;;;;;;3.75;1.73;;;7.60;57.40;;;;;;5004298;28;20853;-60
2024/01/02 01:55:37;;;;;;;3.30;1.65;;;7.60;57.40;;;;;;5034956;28;20132;-58
2024/01/02 01:58:06;;;;;;;2.03;1.48;;;7.60;57.40;;;;;;5005845;28;20136;-60
2024/01/02 02:00:36;;;;;;;4.43;1.60;;;7.60;57.40;;;;;;5010162;28;20119;-59
2024/01/02 02:03:06;;;;;;;2.20;1.92;;;7.60;57.30;;;;;;5013014;28;20261;-59
2024/01/02 02:05:36;;;;;;;6.45;2.33;;;7.50;57.30;;;;;;5007842;28;20050;-59
2024/01/02 02:08:05;;;;;;;11.73;4.20;;;7.50;57.30;;;;;;5002803;28;20050;-60
2024/01/02 02:10:34;;;;;;;4.45;1.77;;;7.50;57.30;;;;;;5011582;28;20064;-60
2024/01/02 02:13:03;;;;;;;5.97;2.10;;;7.40;57.30;;;;;;5013280;28;20053;-60
2024/01/02 02:15:34;;;;;;;2.63;1.58;;;7.40;57.40;;;;;;5012991;28;20045;-60
2024/01/02 02:18:02;;;;;;;1.60;1.50;;;7.40;57.40;;;;;;5001264;28;20093;-60
2024/01/02 02:20:31;;;;;;;2.38;1.50;;;7.40;57.50;;;;;;5010470;28;20058;-60
2024/01/02 02:23:00;;;;;;;1.50;1.40;;;7.50;57.60;;;;;;5019030;28;20077;-59
2024/01/02 02:25:29;;;;;;;9.02;1.83;;;7.50;57.60;;;;;;5008765;28;20041;-60
2024/01/02 02:27:58;;;;;;;4.43;1.98;;;7.60;57.60;;;;;;5012261;28;20084;-60
2024/01/02 02:30:26;;;;;;;3.13;1.58;;;7.60;57.60;;;;;;5012180;28;20508;-60
2024/01/02 02:32:55;;;;;;;4.80;1.92;;;7.70;57.60;;;;;;5019299;28;20148;-60
2024/01/02 02:35:24;;;;;;;9.57;1.88;;;7.70;57.50;;;;;;5013808;28;20058;-60
2024/01/02 02:37:54;;;;;;;2.13;1.55;;;7.80;57.50;;;;;;5006219;28;20158;-61
2024/01/02 02:40:24;;;;;;;2.97;1.60;;;7.80;57.40;;;;;;5022841;28;20053;-61
2024/01/02 02:42:53;;;;;;;3.47;2.22;;;7.80;58.00;;;;;;5010835;28;20050;-59
2024/01/02 02:45:22;;;;;;;4.57;1.52;;;7.90;57.30;;;;;;5007980;28;20087;-61
2024/01/02 02:47:50;;;;;;;2.50;1.58;;;7.90;57.30;;;;;;5003865;28;20069;-61
2024/01/02 02:50:18;;;;;;;7.05;2.78;;;7.90;57.20;;;;;;5016110;28;20061;-63
2024/01/02 02:52:47;;;;;;;5.90;1.45;;;7.90;57.20;;;;;;5006469;28;20057;-61
2024/01/02 02:55:15;;;;;;;4.93;1.63;;;7.90;57.10;;;;;;5008886;28;20061;-60
2024/01/02 02:57:45;;;;;;;1.70;0.88;;;7.90;57.00;;;;;;5015917;28;20083;-59
2024/01/02 03:00:14;;;;;;;1.88;1.45;;;7.90;57.00;;;;;;5013981;28;20069;-61
2024/01/02 03:02:42;;;;;;;4.97;1.70;;;8.00;57.10;;;;;;5030693;28;20123;-60
2024/01/02 03:05:10;;;;;;;5.88;1.92;;;8.00;57.00;;;;;;5018418;28;20392;-60
2024/01/02 03:07:41;;;;;;;1.85;1.33;;;8.00;56.90;;;;;;5009804;28;20065;-60
2024/01/02 03:10:10;;;;;;;5.38;1.60;;;8.00;56.90;;;;;;5008574;28;20065;-59
2024/01/02 03:12:38;;;;;;;5.03;1.77;;;7.90;57.50;;;;;;5017482;28;20064;-59
2024/01/02 03:15:09;;;;;;;5.13;2.17;;;8.00;56.90;;;;;;5015579;28;20050;-60
2024/01/02 03:17:38;;;;;;;4.57;1.88;;;8.00;56.80;;;;;;5009960;28;20057;-61
2024/01/02 03:20:08;;;;;;;2.75;1.90;;;8.00;56.80;;;;;;5008317;28;20746;-59
2024/01/02 03:22:36;;;;;;;15.82;1.95;;;8.00;56.70;;;;;;5018560;28;20504;-61
2024/01/02 03:25:05;;;;;;;3.13;2.05;;;8.00;56.60;;;;;;5016599;28;20142;-61
2024/01/02 03:27:34;;;;;;;3.90;1.73;;;8.00;56.60;;;;;;5013601;28;20099;-60
2024/01/02 03:30:03;;;;;;;4.95;2.00;;;8.00;56.60;;;;;;5013635;28;20496;-60
2024/01/02 03:32:33;;;;;;;2.75;1.83;;;8.00;56.50;;;;;;5014038;28;20064;-60
2024/01/02 03:35:02;;;;;;;5.50;1.48;;;8.10;56.50;;;;;;5013009;28;20053;-59
2024/01/02 03:37:31;;;;;;;3.28;1.65;;;8.00;56.50;;;;;;5013889;28;20740;-61
2024/01/02 03:39:59;;;;;;;4.85;1.63;;;8.10;56.40;;;;;;5007963;28;20821;-60
2024/01/02 03:42:27;;;;;;;4.72;2.08;;;8.10;56.40;;;;;;5008017;28;20057;-60
2024/01/02 03:44:55;;;;;;;5.15;1.67;;;8.10;56.40;;;;;;5012732;28;20153;-60
2024/01/02 03:47:24;;;;;;;5.72;2.47;;;8.00;56.30;;;;;;5013228;28;20058;-61
2024/01/02 03:49:53;;;;;;;6.20;2.38;;;8.00;56.30;;;;;;5012972;28;20147;-59
2024/01/02 03:52:22;;;;;;;4.95;2.33;;;8.00;56.30;;;;;;5031882;28;20072;-60
2024/01/02 03:54:50;;;;;;;4.28;2.30;;;7.90;56.20;;;;;;5008986;28;20507;-60
2024/01/02 03:57:18;;;;;;;2.67;1.90;;;7.90;56.90;;;;;;5017872;28;20182;-61
2024/01/02 03:59:47;;;;;;;6.03;1.45;;;7.90;56.30;;;;;;5015806;28;20073;-60
2024/01/02 04:02:15;;;;;;;4.38;1.88;;;7.90;56.40;;;;;;5003963;28;20223;-59
2024/01/02 04:04:43;;;;;;;12.32;5.45;;;7.80;56.40;;;;;;5010769;28;20068;-60
2024/01/02 04:07:14;;;;;;;35.10;9.23;;;7.80;56.40;;;;;;5021484;28;20418;-60
2024/01/02 04:09:42;;;;;;;10.00;3.90;;;7.80;56.40;;;;;;5012217;28;20146;-60
2024/01/02 04:12:11;;;;;;;19.73;4.95;;;7.90;56.50;;;;;;5006936;28;20057;-60
2024/01/02 04:14:39;;;;;;;14.45;5.13;;;7.90;56.40;;;;;;5022134;28;20045;-60
2024/01/02 04:17:07;;;;;;;7.22;1.67;;;7.90;56.40;;;;;;5017686;28;20081;-62
2024/01/02 04:19:36;;;;;;;5.35;1.80;;;7.90;56.30;;;;;;5013882;28;20049;-59
2024/01/02 04:22:04;;;;;;;10.40;3.45;;;8.00;56.30;;;;;;4997650;28;20140;-61
2024/01/02 04:24:34;;;;;;;2.60;1.98;;;7.90;56.30;;;;;;5019190;28;20056;-60
2024/01/02 04:27:03;;;;;;;15.88;3.00;;;8.00;56.30;;;;;;5015226;28;20056;-60
2024/01/02 04:29:34;;;;;;;13.73;4.28;;;8.00;56.20;;;;;;5004193;28;20079;-61
2024/01/02 04:32:03;;;;;;;21.52;4.10;;;7.90;56.20;;;;;;5008647;28;20623;-61
2024/01/02 04:34:31;;;;;;;10.18;3.67;;;7.90;56.10;;;;;;5009517;28;20676;-61
2024/01/02 04:37:05;;;;;;;14.98;3.80;;;7.90;56.20;;;;;;5018349;28;20050;-62
2024/01/02 04:39:35;;;;;;;4.40;1.67;;;7.90;56.20;;;;;;5014594;28;20057;-62
2024/01/02 04:42:04;;;;;;;13.32;2.95;;;7.90;56.20;;;;;;5003566;28;20058;-60
2024/01/02 04:44:32;;;;;;;2.40;0.90;;;7.90;56.20;;;;;;5015929;28;20053;-61
2024/01/02 04:47:02;;;;;;;10.15;1.35;;;7.80;56.30;;;;;;5009524;28;20037;-62
2024/01/02 04:49:30;;;;;;;3.80;1.42;;;7.80;56.40;;;;;;5015050;28;20515;-61
2024/01/02 04:52:01;;;;;;;1.23;1.13;;;7.90;56.50;;;;;;5009811;28;20114;-64
2024/01/02 04:54:30;;;;;;;2.40;1.48;;;7.90;56.40;;;;;;5021227;28;20056;-61
2024/01/02 04:57:00;;;;;;;3.70;2.10;;;8.00;56.50;;;;;;5007255;28;20118;-59
2024/01/02 04:59:28;;;;;;;1.65;1.02;;;8.10;56.40;;;;;;5013022;28;20041;-61
2024/01/02 05:01:57;;;;;;;2.03;1.30;;;8.10;56.20;;;;;;4998021;28;20042;-60
2024/01/02 05:04:26;;;;;;;3.00;1.75;;;8.20;56.20;;;;;;5015599;28;20057;-62
2024/01/02 05:06:55;;;;;;;7.18;1.70;;;8.30;56.10;;;;;;5011639;28;20049;-61
2024/01/02 05:09:23;;;;;;;0.93;0.90;;;8.40;56.10;;;;;;5004902;28;20399;-60
2024/01/02 05:11:52;;;;;;;7.97;2.00;;;8.40;55.80;;;;;;5017992;28;20131;-59
2024/01/02 05:14:24;;;;;;;2.30;1.40;;;8.50;55.70;;;;;;5007089;28;20606;-62
2024/01/02 05:16:53;;;;;;;5.82;1.58;;;8.50;55.80;;;;;;5018612;28;20559;-61
2024/01/02 05:19:21;;;;;;;1.75;1.30;;;8.60;55.70;;;;;;5005104;28;20053;-62
2024/01/02 05:21:51;;;;;;;2.53;1.38;;;8.60;55.60;;;;;;5020686;28;20053;-60
2024/01/02 05:24:20;;;;;;;0.80;0.80;;;8.60;55.50;;;;;;5007278;28;20140;-59
2024/01/02 05:26:48;;;;;;;1.48;0.93;;;8.70;55.50;;;;;;5008987;28;20057;-60
2024/01/02 05:29:16;;;;;;;4.63;1.67;;;8.70;55.30;;;;;;5016949;28;20111;-61
2024/01/02 05:31:46;;;;;;;7.63;1.65;;;8.70;55.20;;;;;;5008877;28;20091;-60
2024/01/02 05:34:14;;;;;;;1.75;1.15;;;8.60;55.10;;;;;;5006784;28;20042;-60
2024/01/02 05:36:44;;;;;;;1.80;1.23;;;8.60;55.20;;;;;;5011937;28;20107;-61
2024/01/02 05:39:12;;;;;;;4.15;1.48;;;8.70;55.20;;;;;;5014797;28;20066;-60
2024/01/02 05:41:41;;;;;;;7.50;1.50;;;8.70;55.30;;;;;;5005205;28;20064;-60
2024/01/02 05:44:09;;;;;;;9.52;1.30;;;8.70;55.20;;;;;;5007764;28;20061;-61
2024/01/02 05:46:37;;;;;;;3.25;1.80;;;8.70;55.10;;;;;;5007324;28;20049;-60
2024/01/02 05:49:07;;;;;;;1.98;1.38;;;8.80;55.20;;;;;;5018066;28;20060;-61
2024/01/02 05:51:35;;;;;;;1.33;1.13;;;8.80;55.20;;;;;;5009964;28;20853;-61
2024/01/02 05:54:04;;;;;;;1.02;0.93;;;8.80;54.90;;;;;;5005622;28;20061;-60
2024/01/02 05:56:33;;;;;;;2.00;1.30;;;8.80;54.80;;;;;;5009141;28;20129;-60
2024/01/02 05:59:01;;;;;;;5.38;1.30;;;8.80;54.90;;;;;;5010263;28;20081;-60
2024/01/02 06:01:29;;;;;;;6.15;2.22;;;8.80;55.00;;;;;;5010483;28;20061;-61
2024/01/02 06:03:58;;;;;;;4.18;2.13;;;8.80;54.90;;;;;;5009418;28;20139;-60
2024/01/02 06:06:27;;;;;;;7.00;2.10;;;8.90;54.90;;;;;;5012251;28;20049;-65
2024/01/02 06:08:56;;;;;;;2.20;1.33;;;8.90;54.90;;;;;;5006002;28;20045;-60
2024/01/02 06:11:24;;;;;;;1.70;1.40;;;9.00;55.50;;;;;;5009178;28;20061;-58
2024/01/02 06:13:52;;;;;;;2.90;1.40;;;9.00;54.80;;;;;;5009796;28;20053;-60
2024/01/02 06:16:21;;;;;;;2.25;1.08;;;9.00;54.70;;;;;;5014347;28;20058;-60
2024/01/02 06:18:49;;;;;;;4.97;1.42;;;9.00;54.60;;;;;;5013511;28;20160;-61
2024/01/02 06:21:18;;;;;;;1.85;0.90;;;9.00;54.60;;;;;;5015265;28;20262;-60
2024/01/02 06:23:47;;;;;;;2.03;1.15;;;9.00;54.60;;;;;;5006014;28;20688;-61
2024/01/02 06:26:24;;;;;;;3.22;1.60;;;9.00;54.60;;;;;;5014046;28;20064;-60
2024/01/02 06:28:52;;;;;;;2.85;0.98;;;9.10;54.60;;;;;;5008214;28;20096;-59
2024/01/02 06:31:21;;;;;;;4.97;1.70;;;9.10;54.50;;;;;;5012842;28;20065;-61
2024/01/02 06:33:49;;;;;;;5.72;1.80;;;9.10;54.40;;;;;;5005184;28;20147;-59
2024/01/02 06:36:18;;;;;;;12.32;1.88;;;9.10;54.20;;;;;;5003510;28;20500;-59
2024/01/02 06:38:48;;;;;;;19.33;1.45;;;9.10;54.20;;;;;;5019941;28;20105;-58
2024/01/02 06:41:16;;;;;;;5.05;2.45;;;9.10;54.20;;;;;;5016864;28;20149;-59
2024/01/02 06:43:45;;;;;;;5.85;1.95;;;9.10;54.20;;;;;;5013773;28;20064;-57
2024/01/02 06:46:13;;;;;;;0.63;0.63;;;9.10;54.10;;;;;;5014813;28;20515;-60
2024/01/02 06:48:42;;;;;;;1.33;1.05;;;9.10;54.60;;;;;;5016040;28;20538;-58
2024/01/02 06:51:10;;;;;;;0.80;0.80;;;9.10;53.80;;;;;;5013524;28;20104;-62
2024/01/02 06:53:38;;;;;;;6.97;1.23;;;9.10;53.90;;;;;;5011037;28;20061;-61
2024/01/02 06:56:09;;;;;;;1.92;0.88;;;9.20;54.50;;;;;;5003951;28;20061;-60
2024/01/02 06:58:37;;;;;;;3.20;2.03;;;9.20;53.90;;;;;;5008689;28;20412;-59
2024/01/02 07:01:05;;;;;;;1.33;1.00;;;9.20;53.60;;;;;;5010460;28;20484;-63
2024/01/02 07:03:34;;;;;;;6.43;1.92;;;9.20;53.60;;;;;;5012370;28;20057;-63
2024/01/02 07:06:02;;;;;;;2.33;1.95;;;9.30;53.70;;;;;;5003344;28;20122;-61
2024/01/02 07:08:31;;;;;;;7.68;1.55;;;9.30;53.70;;;;;;5014113;28;20045;-62
2024/01/02 07:11:00;;;;;;;2.92;1.08;;;9.30;53.40;;;;;;5004900;28;20064;-61
2024/01/02 07:13:29;;;;;;;0.80;0.52;;;9.30;53.30;;;;;;5011866;28;20046;-63
2024/01/02 07:15:58;;;;;;;3.85;1.33;;;9.30;53.30;;;;;;5006438;28;20065;-60
2024/01/02 07:18:28;;;;;;;4.30;1.30;;;9.30;53.40;;;;;;5009204;28;20045;-61
2024/01/02 07:20:56;;;;;;;4.80;0.88;;;9.30;53.20;;;;;;5012018;28;20060;-63
2024/01/02 07:23:25;;;;;;;1.75;1.20;;;9.20;53.00;;;;;;5006853;28;20563;-63
2024/01/02 07:25:53;;;;;;;3.03;1.13;;;9.30;53.10;;;;;;5017395;28;20057;-62
2024/01/02 07:28:21;;;;;;;4.20;1.35;;;9.30;53.10;;;;;;5008152;28;21656;-62
2024/01/02 07:30:51;;;;;;;0.82;0.65;;;9.30;53.70;;;;;;5015609;28;20088;-62
2024/01/02 07:33:19;;;;;;;3.45;1.10;;;9.40;53.00;;;;;;5020495;28;20057;-61
2024/01/02 07:35:48;;;;;;;2.83;1.23;;;9.40;53.00;;;;;;5011651;28;20730;-60
2024/01/02 07:38:16;;;;;;;1.30;0.98;;;9.50;53.10;;;;;;5012062;28;20054;-62
2024/01/02 07:40:45;;;;;;;2.47;1.38;;;9.50;52.90;;;;;;5011126;28;20124;-63
2024/01/02 07:43:13;;;;;;;1.60;1.00;;;9.60;52.90;;;;;;5013767;28;20161;-62
2024/01/02 07:45:41;;;;;;;2.33;1.58;;;9.60;52.80;;;;;;5024753;28;20052;-62
2024/01/02 07:48:11;;;;;;;6.18;2.13;;;9.70;53.50;;;;;;5006172;28;20058;-62
2024/01/02 07:50:40;;;;;;;0.98;0.85;;;9.70;52.90;;;;;;5013359;28;20068;-62
2024/01/02 07:53:09;;;;;;;5.13;1.50;;;9.80;52.90;;;;;;5017054;28;20084;-62
2024/01/02 07:55:37;;;;;;;5.53;1.40;;;9.80;52.70;;;;;;5024495;28;20068;-61
2024/01/02 07:58:05;;;;;;;2.85;1.10;;;9.90;52.80;;;;;;4999206;28;20071;-62
2024/01/02 08:00:34;;;;;;;4.65;1.77;;;9.90;52.60;;;;;;5017823;28;20049;-62
2024/01/02 08:03:02;;;;;;;4.05;1.58;;;10.00;52.60;;;;;;5014941;28;20080;-62
2024/01/02 08:05:32;;;;;;;4.88;2.05;;;10.00;52.60;;;;;;5015690;28;20053;-62
2024/01/02 08:08:02;;;;;;;3.85;2.13;;;10.20;52.80;;;;;;5009038;28;20085;-60
2024/01/02 08:10:30;;;;;;;4.65;1.73;;;10.30;52.50;;;;;;5014989;28;20503;-61
2024/01/02 08:12:59;;;;;;;1.63;1.05;;;10.30;52.30;;;;;;5014357;28;20065;-61
2024/01/02 08:15:27;;;;;;;6.70;1.67;;;10.40;52.30;;;;;;5014756;28;20474;-63
2024/01/02 08:18:08;;;;;;;6.93;1.55;;;10.40;51.80;;;;;;5000974;28;20068;-61
2024/01/02 08:20:40;;;;;;;17.00;1.40;;;10.40;52.10;;;;;;5024515;28;20141;-62
2024/01/02 08:23:08;;;;;;;6.40;1.65;;;10.50;52.00;;;;;;5024860;28;20099;-62
2024/01/02 08:25:36;;;;;;;4.03;1.38;;;10.50;51.70;;;;;;5017314;28;20060;-62
2024/01/02 08:28:06;;;;;;;2.78;1.25;;;10.50;51.50;;;;;;5002731;28;20508;-63
2024/01/02 08:30:34;;;;;;;16.23;1.65;;;10.50;51.60;;;;;;5006102;28;20778;-62
2024/01/02 08:33:03;;;;;;;2.83;1.85;;;10.60;51.60;;;;;;5009650;28;20636;-61
2024/01/02 08:35:33;;;;;;;5.95;1.90;;;10.70;51.60;;;;;;5021250;28;20057;-62
2024/01/02 08:38:04;;;;;;;3.92;1.60;;;10.80;51.60;;;;;;5012172;28;20433;-62
2024/01/02 08:40:33;;;;;;;3.40;1.25;;;10.80;51.60;;;;;;5016769;28;20077;-61
2024/01/02 08:43:01;;;;;;;14.80;1.27;;;10.90;51.20;;;;;;5011443;28;20081;-63
2024/01/02 08:45:30;;;;;;;1.58;1.02;;;10.90;51.20;;;;;;5005666;28;20057;-62
2024/01/02 08:47:58;;;;;;;2.00;1.38;;;10.90;51.10;;;;;;5018917;28;20076;-62
2024/01/02 08:50:29;;;;;;;3.10;0.80;;;10.90;51.20;;;;;;5012335;28;20131;-62
2024/01/02 08:52:58;;;;;;;4.40;1.52;;;11.00;51.00;;;;;;5019060;28;20053;-62
2024/01/02 08:55:28;;;;;;;0.70;0.70;;;11.00;51.10;;;;;;5017263;28;20053;-61
2024/01/02 08:57:56;;;;;;;4.72;1.70;;;11.10;51.10;;;;;;5018111;28;20056;-62
2024/01/02 09:00:25;;;;;;;1.02;0.77;;;11.20;51.10;;;;;;5010571;28;20064;-62
2024/01/02 09:02:53;;;;;;;5.78;1.45;;;11.20;50.80;;;;;;5010530;28;20071;-61
2024/01/02 09:05:22;;;;;;;1.98;1.00;;;11.20;50.70;;;;;;5017145;28;20053;-61
2024/01/02 09:07:50;;;;;;;7.57;1.60;;;11.20;50.70;;;;;;5025501;28;20470;-61
2024/01/02 09:10:18;;;;;;;9.60;1.45;;;11.30;50.60;;;;;;5010705;28;20120;-62
2024/01/02 09:12:48;;;;;;;5.90;1.65;;;11.30;50.90;;;;;;5010800;28;20405;-61
2024/01/02 09:15:16;;;;;;;6.75;2.05;;;11.40;51.00;;;;;;5012343;28;20065;-62
2024/01/02 09:17:44;;;;;;;3.40;1.45;;;11.60;50.80;;;;;;5016845;28;20049;-64
2024/01/02 09:20:13;;;;;;;3.47;1.50;;;11.60;50.20;;;;;;5011039;28;21222;-62
2024/01/02 09:22:41;;;;;;;1.88;1.50;;;11.70;50.50;;;;;;5020780;28;20507;-62
2024/01/02 09:25:12;;;;;;;5.85;1.15;;;11.80;50.50;;;;;;5009041;28;20139;-62
2024/01/02 09:27:43;;;;;;;5.47;1.30;;;11.90;50.30;;;;;;5018955;28;20364;-62
2024/01/02 09:30:14;;;;;;;2.03;1.27;;;12.10;50.30;;;;;;5000151;28;20632;-60
2024/01/02 09:32:43;;;;;;;0.77;0.77;;;12.10;50.00;;;;;;5009159;28;20441;-62
2024/01/02 09:35:12;;;;;;;4.13;2.22;;;12.20;50.00;;;;;;5021219;28;20061;-63
2024/01/02 09:37:40;;;;;;;3.85;1.52;;;12.20;49.40;;;;;;5017113;28;20099;-62
2024/01/02 09:40:19;;;;;;;30.17;10.77;;;12.30;50.30;;;;;;5012517;28;20060;-62
2024/01/02 09:42:56;;;;;;;1.00;0.57;;;12.40;49.50;;;;;;5014053;28;20058;-62
2024/01/02 09:45:38;;;;;;;5.57;1.50;;;12.40;49.40;;;;;;5014849;28;20081;-63
2024/01/02 09:48:34;;;;;;;10.77;1.90;;;12.40;49.00;;;;;;5001720;28;20045;-63
2024/01/02 09:51:09;;;;;;;19.20;4.00;;;12.30;49.70;;;;;;5006887;28;20045;-63
2024/01/02 09:53:55;;;;;;;1.77;1.42;;;12.20;48.80;;;;;;5013737;28;20068;-62
2024/01/02 09:56:32;;;;;;;10.05;2.45;;;12.10;49.10;;;;;;5002264;28;20073;-62
2024/01/02 09:59:08;;;;;;;5.93;2.13;;;12.10;49.20;;;;;;5017419;28;20064;-63
2024/01/02 10:01:45;;;;;;;1.25;0.82;;;12.10;49.20;;;;;;5021433;28;20049;-62
2024/01/02 10:04:36;;;;;;;3.53;1.52;;;12.00;49.00;;;;;;5004384;28;20053;-61
2024/01/02 10:07:19;;;;;;;7.68;2.13;;;12.00;49.30;;;;;;5011137;28;20054;-62
2024/01/02 10:10:03;;;;;;;5.03;1.88;;;12.00;49.30;;;;;;5012369;28;20115;-63
2024/01/02 10:12:47;;;;;;;10.32;3.15;;;12.00;49.40;;;;;;5018153;28;20060;-62
2024/01/02 10:15:23;;;;;;;2.90;1.25;;;12.00;49.60;;;;;;5026039;28;20046;-62
2024/01/02 10:17:58;;;;;;;3.72;1.45;;;12.00;49.50;;;;;;5005961;28;20064;-63
2024/01/02 10:20:38;;;;;;;4.13;1.77;;;12.00;49.30;;;;;;5015915;28;20068;-62
2024/01/02 10:23:16;;;;;;;2.47;1.38;;;12.10;49.50;;;;;;5012534;28;20054;-62
2024/01/02 10:25:48;;;;;;;6.50;2.17;;;12.00;49.50;;;;;;5016351;28;20061;-62
2024/01/02 10:28:20;;;;;;;3.33;1.65;;;12.00;49.30;;;;;;5009508;28;20053;-63
2024/01/02 10:30:55;;;;;;;3.00;1.77;;;12.00;49.30;;;;;;5022504;28;20057;-61
2024/01/02 10:33:32;;;;;;;2.65;1.27;;;12.00;49.20;;;;;;5017908;28;20041;-62
2024/01/02 10:36:04;;;;;;;4.28;1.60;;;11.90;48.80;;;;;;5016233;28;20110;-60
2024/01/02 10:38:43;;;;;;;3.50;1.63;;;11.90;49.00;;;;;;5007878;28;20088;-63
2024/01/02 10:41:29;;;;;;;4.80;1.30;;;11.90;49.10;;;;;;5014243;28;20089;-62
2024/01/02 10:44:11;;;;;;;23.63;2.00;;;11.80;48.90;;;;;;5010826;28;20061;-62
2024/01/02 10:46:47;;;;;;;2.08;1.58;;;11.90;49.10;;;;;;5020578;28;20144;-62
2024/01/02 10:49:29;;;;;;;5.88;2.70;;;11.90;49.30;;;;;;5009897;28;20156;-61
2024/01/02 10:52:05;;;;;;;6.38;2.35;;;12.00;49.20;;;;;;5009234;28;20073;-61
2024/01/02 10:54:41;;;;;;;1.60;1.20;;;12.00;49.20;;;;;;5010672;28;20187;-62
2024/01/02 10:57:17;;;;;;;10.43;3.28;;;12.00;49.70;;;;;;5008924;28;20087;-61
2024/01/02 10:59:56;;;;;;;3.67;1.65;;;12.00;49.00;;;;;;5014965;28;20137;-61
2024/01/02 11:02:40;;;;;;;2.25;1.48;;;12.10;49.10;;;;;;5000337;28;20061;-63
2024/01/02 11:05:17;;;;;;;7.85;1.48;;;12.20;49.00;;;;;;5012205;28;20092;-62
2024/01/02 11:07:50;;;;;;;10.05;2.03;;;12.20;48.70;;;;;;5011152;28;20426;-62
2024/01/02 11:10:22;;;;;;;4.60;1.63;;;12.20;48.90;;;;;;5003535;28;20050;-62
2024/01/02 11:12:56;;;;;;;11.13;1.80;;;12.40;49.10;;;;;;5025910;28;21138;-62
2024/01/02 11:15:37;;;;;;;5.80;2.58;;;12.50;48.90;;;;;;5014750;28;20400;-62
2024/01/02 11:18:07;;;;;;;8.50;2.13;;;12.50;48.80;;;;;;5010471;28;20148;-61
2024/01/02 11:20:46;;;;;;;7.32;1.80;;;12.60;48.90;;;;;;5018808;28;20048;-62
2024/01/02 11:23:18;;;;;;;4.95;1.55;;;12.60;48.80;;;;;;5007381;28;20081;-63
2024/01/02 11:25:54;;;;;;;1.75;1.38;;;12.60;48.50;;;;;;5011930;28;20060;-61
2024/01/02 11:28:41;;;;;;;4.20;1.30;;;12.50;48.30;;;;;;5026317;28;20061;-63
2024/01/02 11:31:11;;;;;;;10.52;2.67;;;12.50;48.40;;;;;;5018350;28;20212;-63
2024/01/02 11:33:48;;;;;;;11.32;2.83;;;12.50;48.50;;;;;;5006821;28;20472;-62
2024/01/02 11:36:26;;;;;;;14.57;2.22;;;12.50;48.60;;;;;;5006840;28;20175;-62
2024/01/02 11:39:04;;;;;;;7.53;1.63;;;12.60;48.70;;;;;;5021432;28;20082;-61
2024/01/02 11:41:48;;;;;;;8.88;2.50;;;12.70;48.50;;;;;;5011673;28;20053;-62
2024/01/02 11:44:30;;;;;;;1.35;1.08;;;12.80;48.50;;;;;;5007215;28;20061;-64
2024/01/02 11:47:03;;;;;;;104.88;27.33;;;12.80;48.30;;;;;;5015622;28;20080;-63
2024/01/02 11:49:37;;;;;;;5.70;2.45;;;12.80;48.40;;;;;;5008698;28;20065;-64
2024/01/02 11:52:12;;;;;;;3.92;1.75;;;12.80;48.50;;;;;;4998443;28;20420;-60
2024/01/02 11:54:48;;;;;;;6.00;1.80;;;12.80;48.10;;;;;;5007896;28;20057;-62
2024/01/02 11:57:25;;;;;;;6.32;1.75;;;12.80;48.00;;;;;;5012912;28;20100;-62
2024/01/02 12:00:00;;;;;;;3.38;1.70;;;12.70;48.20;;;;;;5015052;28;20168;-63
2024/01/02 12:02:43;;;;;;;3.87;1.77;;;12.70;48.20;;;;;;5008927;28;20050;-63
2024/01/02 12:05:29;;;;;;;8.95;1.48;;;12.70;48.00;;;;;;5008784;28;20311;-63
2024/01/02 12:07:59;;;;;;;3.85;1.42;;;12.80;48.20;;;;;;5024609;28;20061;-62
2024/01/02 12:10:33;;;;;;;5.15;1.23;;;12.80;48.70;;;;;;5011943;28;22020;-63
2024/01/02 12:13:08;;;;;;;3.50;1.88;;;12.80;48.20;;;;;;5012027;28;20049;-62
2024/01/02 12:15:40;;;;;;;5.03;1.50;;;12.80;47.90;;;;;;5019592;28;20048;-63
2024/01/02 12:18:12;;;;;;;12.23;2.58;;;12.90;48.00;;;;;;5007150;28;20061;-62
2024/01/02 12:20:48;;;;;;;4.18;1.95;;;12.90;48.10;;;;;;5014238;28;20060;-63
2024/01/02 12:23:18;;;;;;;4.50;1.52;;;12.90;48.20;;;;;;5010834;28;20066;-62
2024/01/02 12:25:50;;;;;;;6.15;1.83;;;13.00;48.00;;;;;;5020922;28;20071;-63
2024/01/02 12:28:23;;;;;;;1.70;1.20;;;13.00;48.00;;;;;;5005532;28;20046;-63
2024/01/02 12:31:00;;;;;;;6.07;2.67;;;13.00;47.90;;;;;;5006331;28;20050;-63
2024/01/02 12:33:34;;;;;;;8.00;3.10;;;13.00;48.00;;;;;;5018906;28;20062;-63
2024/01/02 12:36:11;;;;;;;1.30;1.15;;;13.10;48.00;;;;;;5009368;28;20064;-62
2024/01/02 12:38:48;;;;;;;5.28;1.27;;;13.10;47.90;;;;;;5011232;28;20097;-62
2024/01/02 12:41:21;;;;;;;4.57;1.70;;;13.10;47.90;;;;;;5010898;28;20072;-62
2024/01/02 12:43:52;;;;;;;12.25;3.25;;;13.20;47.80;;;;;;5022535;28;20679;-62
2024/01/02 12:46:33;;;;;;;2.83;1.88;;;13.20;47.70;;;;;;5011615;28;21502;-61
2024/01/02 12:49:09;;;;;;;21.58;5.15;;;13.20;47.60;;;;;;5019049;28;20053;-63
2024/01/02 12:51:44;;;;;;;1.42;1.10;;;13.20;47.30;;;;;;5006702;28;20046;-63
2024/01/02 12:54:19;;;;;;;7.45;1.30;;;13.20;47.60;;;;;;5016389;28;20158;-62
2024/01/02 12:56:55;;;;;;;4.80;1.93;;;13.30;47.80;;;;;;5020963;28;20060;-63
2024/01/02 12:59:29;;;;;;;3.25;1.50;;;13.50;47.80;;;;;;5017744;28;20064;-64
2024/01/02 13:01:58;;;;;;;12.95;1.58;;;13.50;47.60;;;;;;5011073;28;20088;-62
2024/01/02 13:04:26;;;;;;;2.13;1.45;;;13.60;47.60;;;;;;5005338;28;20112;-63
2024/01/02 13:06:56;;;;;;;6.30;1.85;;;13.60;47.60;;;;;;5011812;28;20076;-63
2024/01/02 13:09:27;;;;;;;6.35;1.10;;;13.70;47.60;;;;;;5017581;28;20053;-64
2024/01/02 13:11:58;;;;;;;9.35;1.73;;;13.80;47.30;;;;;;5028876;28;20145;-63